Time;durP1;ratioP1;P1;durP2;ratioP2;P2;SDS_P1;SDS_P2;PMS_P1;PMS_P2;Temp;Humidity;BMP_temperature;BMP_pressure;BME280_temperature;BME280_humidity;BME280_pressure;Samples;Min_cycle;Max_cycle;Signal;HPM_P1;HPM_P2
2022/06/25 00:01:36;;;;;;;23.63;16.70;;;24.40;99.90;;;;;;4958457;28;20062;-83
2022/06/25 00:07:26;;;;;;;21.92;14.73;;;24.10;99.90;;;;;;4973743;28;20093;-82
2022/06/25 00:10:14;;;;;;;24.27;15.00;;;24.20;99.90;;;;;;4960352;28;20050;-83
2022/06/25 00:13:00;;;;;;;19.77;12.88;;;24.20;99.90;;;;;;4974064;28;20053;-83
2022/06/25 00:15:46;;;;;;;18.83;12.75;;;24.20;99.90;;;;;;4969602;28;20138;-82
2022/06/25 00:18:32;;;;;;;17.95;12.35;;;24.20;99.90;;;;;;4972402;28;20054;-81
2022/06/25 00:21:18;;;;;;;17.67;12.10;;;24.20;99.90;;;;;;4974299;28;20053;-82
2022/06/25 00:24:04;;;;;;;14.57;11.30;;;24.10;99.90;;;;;;4974953;28;20062;-79
2022/06/25 00:26:51;;;;;;;19.60;11.25;;;24.10;99.90;;;;;;4956637;28;20062;-81
2022/06/25 00:29:37;;;;;;;19.05;10.88;;;24.10;99.90;;;;;;4975724;28;20045;-80
2022/06/25 00:32:23;;;;;;;14.00;10.40;;;24.10;99.90;;;;;;4976414;28;20037;-84
2022/06/25 00:35:09;;;;;;;14.02;10.07;;;24.10;99.90;;;;;;4959637;28;20058;-82
2022/06/25 00:37:55;;;;;;;17.65;10.80;;;24.00;99.90;;;;;;4970832;28;20042;-84
2022/06/25 00:40:44;;;;;;;15.43;10.60;;;24.10;99.90;;;;;;4976966;28;20050;-85
2022/06/25 00:43:36;;;;;;;16.17;10.88;;;24.00;99.90;;;;;;4961330;28;20487;-86
2022/06/25 00:46:24;;;;;;;15.75;9.73;;;23.90;99.90;;;;;;4962347;28;20679;-88
2022/06/25 00:49:11;;;;;;;18.25;11.30;;;23.90;99.90;;;;;;4972663;28;20133;-85
2022/06/25 00:52:00;;;;;;;14.77;9.90;;;23.90;99.90;;;;;;4973999;28;20058;-85
2022/06/25 00:54:53;;;;;;;13.38;9.93;;;23.80;99.90;;;;;;4917498;29;20160;-84
2022/06/25 00:57:41;;;;;;;14.32;10.30;;;23.70;99.90;;;;;;4931559;29;20047;-80
2022/06/25 01:00:28;;;;;;;16.88;10.80;;;23.20;99.90;;;;;;4917480;29;20145;-83
2022/06/25 01:03:14;;;;;;;16.45;11.57;;;23.30;99.90;;;;;;4918859;29;20047;-81
2022/06/25 01:05:59;;;;;;;15.55;10.93;;;23.20;99.90;;;;;;4918503;29;20063;-83
2022/06/25 01:08:46;;;;;;;14.73;10.23;;;23.20;99.90;;;;;;4918246;29;20055;-83
2022/06/25 01:11:31;;;;;;;13.98;9.80;;;23.20;99.90;;;;;;4918450;29;20119;-84
2022/06/25 01:14:18;;;;;;;15.32;11.00;;;23.10;99.90;;;;;;4917945;29;20054;-84
2022/06/25 01:17:08;;;;;;;16.80;10.55;;;23.30;99.90;;;;;;4930284;29;20124;-83
2022/06/25 01:19:54;;;;;;;15.07;10.32;;;23.10;99.90;;;;;;4930170;29;20055;-84
2022/06/25 01:22:40;;;;;;;16.83;9.55;;;23.10;99.90;;;;;;4917888;29;20051;-83
2022/06/25 01:25:34;;;;;;;14.65;8.55;;;23.20;99.90;;;;;;4917703;29;20062;-84
2022/06/25 01:28:20;;;;;;;14.05;9.55;;;23.20;99.90;;;;;;4926022;29;20062;-83
2022/06/25 01:31:06;;;;;;;15.23;8.82;;;23.20;99.90;;;;;;4936583;29;20063;-83
2022/06/25 01:33:52;;;;;;;11.73;7.90;;;23.30;99.90;;;;;;4935298;29;20055;-83
2022/06/25 01:36:38;;;;;;;14.35;8.43;;;23.30;99.90;;;;;;4953219;29;20098;-82
2022/06/25 01:39:23;;;;;;;15.50;8.75;;;23.20;99.90;;;;;;4953113;29;20050;-82
2022/06/25 01:42:58;;;;;;;14.68;8.30;;;23.10;99.90;;;;;;4951959;29;20050;-84
2022/06/25 01:45:17;;;;;;;11.85;8.85;;;23.00;99.90;;;;;;4955090;29;20183;-83
2022/06/25 01:48:05;;;;;;;10.70;6.90;;;23.10;99.90;;;;;;4955852;29;20641;-83
2022/06/25 01:50:51;;;;;;;12.68;6.93;;;23.00;99.90;;;;;;4946100;29;20050;-81
2022/06/25 01:53:37;;;;;;;11.55;7.75;;;22.80;99.90;;;;;;4943614;29;20406;-82
2022/06/25 01:56:31;;;;;;;12.55;8.20;;;22.90;99.90;;;;;;4949102;29;20145;-81
2022/06/25 01:59:18;;;;;;;11.50;8.50;;;22.80;99.90;;;;;;4948713;29;20079;-82
2022/06/25 02:02:04;;;;;;;15.48;8.48;;;23.00;99.90;;;;;;4936293;29;20070;-82
2022/06/25 02:04:50;;;;;;;14.15;8.57;;;23.20;99.90;;;;;;4935971;29;20526;-80
2022/06/25 02:07:35;;;;;;;17.25;8.10;;;23.00;99.90;;;;;;4936358;29;20428;-83
2022/06/25 02:10:21;;;;;;;11.70;7.68;;;22.90;99.90;;;;;;4921980;29;20191;-81
2022/06/25 02:13:08;;;;;;;12.45;8.52;;;23.00;99.90;;;;;;4935083;29;20628;-81
2022/06/25 02:15:55;;;;;;;15.30;9.27;;;23.00;99.90;;;;;;4948124;29;20059;-81
2022/06/25 02:18:40;;;;;;;12.90;9.25;;;23.00;99.90;;;;;;4935631;29;20062;-82
2022/06/25 02:21:27;;;;;;;15.68;9.73;;;23.10;99.90;;;;;;4948219;29;20146;-82
2022/06/25 02:24:26;;;;;;;11.93;8.07;;;23.10;99.90;;;;;;4921949;29;20539;-80
2022/06/25 02:27:12;;;;;;;12.75;9.38;;;22.90;99.90;;;;;;4935700;29;20050;-79
2022/06/25 02:29:58;;;;;;;13.80;9.25;;;22.80;99.90;;;;;;4916237;29;20139;-82
2022/06/25 02:32:44;;;;;;;12.38;9.70;;;22.80;99.90;;;;;;4916994;29;20617;-85
2022/06/25 02:35:48;;;;;;;17.63;11.02;;;22.90;99.90;;;;;;4916533;29;20079;-81
2022/06/25 02:38:51;;;;;;;19.45;11.63;;;22.80;99.90;;;;;;4916451;29;20058;-81
2022/06/25 02:41:38;;;;;;;18.55;12.07;;;22.40;99.90;;;;;;4929149;29;20055;-82
2022/06/25 02:44:42;;;;;;;25.13;13.20;;;22.50;99.90;;;;;;4926561;29;20040;-82
2022/06/25 02:47:27;;;;;;;17.55;10.60;;;22.40;99.90;;;;;;4916585;29;20071;-86
2022/06/25 02:50:14;;;;;;;17.83;9.38;;;22.60;99.90;;;;;;4916491;29;20580;-80
2022/06/25 02:53:00;;;;;;;13.80;9.55;;;22.60;99.90;;;;;;4916596;29;20063;-81
2022/06/25 02:59:08;;;;;;;17.75;9.10;;;22.90;99.90;;;;;;4916273;29;20050;-83
2022/06/25 03:01:55;;;;;;;12.60;8.20;;;22.50;99.90;;;;;;4916816;29;20151;-84
2022/06/25 03:04:41;;;;;;;15.23;8.38;;;22.40;99.90;;;;;;4915818;29;20071;-82
2022/06/25 03:07:27;;;;;;;13.95;8.20;;;22.50;99.90;;;;;;4915816;29;20401;-85
2022/06/25 03:10:12;;;;;;;15.00;8.63;;;22.40;99.90;;;;;;4916247;29;20062;-85
2022/06/25 03:12:59;;;;;;;11.85;7.20;;;22.50;99.90;;;;;;4916010;29;20103;-83
2022/06/25 03:15:44;;;;;;;11.68;7.18;;;22.60;99.90;;;;;;4914897;29;20051;-82
2022/06/25 03:18:31;;;;;;;10.95;7.57;;;22.70;99.90;;;;;;4916155;29;20517;-81
2022/06/25 03:21:17;;;;;;;12.82;7.38;;;22.50;99.90;;;;;;4914922;29;20135;-85
2022/06/25 03:24:05;;;;;;;12.38;7.47;;;22.60;99.90;;;;;;4928393;29;20059;-84
2022/06/25 03:26:53;;;;;;;12.05;7.88;;;22.40;99.90;;;;;;4915933;29;20114;-83
2022/06/25 03:29:39;;;;;;;10.82;8.15;;;22.40;99.90;;;;;;4931158;29;20115;-84
2022/06/25 03:32:43;;;;;;;12.95;8.63;;;22.40;99.90;;;;;;4933751;29;20047;-82
2022/06/25 03:35:29;;;;;;;12.98;9.00;;;22.60;99.90;;;;;;4933397;29;20522;-83
2022/06/25 03:38:15;;;;;;;12.65;8.35;;;22.60;99.90;;;;;;4932493;29;20563;-80
2022/06/25 03:44:06;;;;;;;14.32;8.93;;;22.50;99.90;;;;;;4934142;29;20063;-83
2022/06/25 03:46:52;;;;;;;16.35;9.23;;;22.50;99.90;;;;;;4933481;29;20058;-84
2022/06/25 03:49:38;;;;;;;15.23;8.80;;;22.30;99.90;;;;;;4933028;29;20521;-84
2022/06/25 03:52:25;;;;;;;18.25;9.05;;;22.10;99.90;;;;;;4934387;29;20111;-85
2022/06/25 03:55:11;;;;;;;14.13;9.63;;;22.30;99.90;;;;;;4933490;29;20132;-86
2022/06/25 03:57:57;;;;;;;12.30;9.55;;;22.30;99.90;;;;;;4933552;29;20103;-86
2022/06/25 04:00:43;;;;;;;13.88;9.32;;;22.30;99.90;;;;;;4932653;29;20054;-83
2022/06/25 04:03:30;;;;;;;13.82;9.23;;;22.20;99.90;;;;;;4934027;29;20050;-83
2022/06/25 04:06:16;;;;;;;21.15;9.55;;;22.40;99.90;;;;;;4934146;29;20075;-84
2022/06/25 04:09:03;;;;;;;15.13;9.95;;;22.40;99.90;;;;;;4934057;29;20062;-85
2022/06/25 04:11:49;;;;;;;13.10;9.48;;;22.40;99.90;;;;;;4932796;29;20059;-85
2022/06/25 04:14:34;;;;;;;15.55;9.77;;;22.50;99.90;;;;;;4933125;29;20059;-87
2022/06/25 04:17:20;;;;;;;19.27;9.85;;;22.50;99.90;;;;;;4946689;29;20136;-85
2022/06/25 04:20:06;;;;;;;15.80;9.13;;;22.50;99.90;;;;;;4932845;29;20134;-83
2022/06/25 04:22:51;;;;;;;12.38;9.32;;;22.60;99.90;;;;;;4933332;29;20428;-85
2022/06/25 04:25:37;;;;;;;15.05;8.60;;;22.70;99.90;;;;;;4932536;29;20054;-86
2022/06/25 04:31:27;;;;;;;12.48;8.45;;;22.70;99.90;;;;;;4934401;29;20192;-85
2022/06/25 04:34:15;;;;;;;15.40;8.77;;;22.70;99.90;;;;;;4934693;29;20051;-87
2022/06/25 04:37:00;;;;;;;15.15;9.25;;;22.50;99.90;;;;;;4936550;29;20046;-86
2022/06/25 04:39:46;;;;;;;13.02;8.63;;;22.60;99.90;;;;;;4947098;29;20059;-83
2022/06/25 04:42:32;;;;;;;13.85;9.07;;;22.70;99.90;;;;;;4943851;29;20143;-82
2022/06/25 04:45:18;;;;;;;15.73;9.10;;;22.70;99.90;;;;;;4938252;29;20128;-84
2022/06/25 04:48:04;;;;;;;21.67;10.15;;;22.70;99.90;;;;;;4935069;29;20412;-85
2022/06/25 04:50:50;;;;;;;13.63;9.75;;;22.70;99.90;;;;;;4938587;29;20187;-87
2022/06/25 04:53:55;;;;;;;17.35;9.40;;;22.90;99.90;;;;;;4936231;29;20053;-81
2022/06/25 04:56:42;;;;;;;16.45;10.52;;;23.00;99.90;;;;;;4951261;29;20170;-80
2022/06/25 04:59:28;;;;;;;13.95;9.35;;;22.60;99.90;;;;;;4936169;29;20051;-83
2022/06/25 05:02:14;;;;;;;13.45;8.80;;;22.90;99.90;;;;;;4937094;29;20051;-80
2022/06/25 05:04:59;;;;;;;14.55;9.93;;;23.20;99.90;;;;;;4936737;29;20046;-81
2022/06/25 05:07:45;;;;;;;17.48;10.13;;;22.70;99.90;;;;;;4950152;29;20416;-85
2022/06/25 05:10:31;;;;;;;14.15;9.77;;;22.70;99.90;;;;;;4937847;29;20082;-89
2022/06/25 05:13:17;;;;;;;15.07;10.65;;;22.90;99.90;;;;;;4937515;29;20051;-87
2022/06/25 05:16:03;;;;;;;18.05;12.00;;;23.10;99.90;;;;;;4950567;29;20058;-86
2022/06/25 05:18:49;;;;;;;16.70;10.70;;;23.00;99.90;;;;;;4938041;29;20107;-79
2022/06/25 05:21:35;;;;;;;20.08;11.48;;;22.40;99.90;;;;;;4937845;29;20067;-89
2022/06/25 05:24:21;;;;;;;17.52;11.25;;;22.90;99.90;;;;;;4950621;29;20107;-81
2022/06/25 05:27:08;;;;;;;19.13;11.00;;;23.00;99.90;;;;;;4937568;29;20411;-78
2022/06/25 05:29:54;;;;;;;22.23;13.98;;;23.30;99.90;;;;;;4923483;29;20059;-81
2022/06/25 05:32:40;;;;;;;22.13;12.20;;;23.20;99.90;;;;;;4918560;29;20055;-87
2022/06/25 05:35:26;;;;;;;17.25;11.23;;;23.20;99.90;;;;;;4918837;29;20504;-85
2022/06/25 05:38:12;;;;;;;20.38;11.82;;;23.30;99.90;;;;;;4919504;29;20066;-81
2022/06/25 05:40:58;;;;;;;20.15;11.88;;;23.00;99.90;;;;;;4919263;29;20047;-90
2022/06/25 05:43:44;;;;;;;16.23;10.55;;;23.20;99.90;;;;;;4919020;29;20140;-83
2022/06/25 05:46:30;;;;;;;16.70;10.52;;;23.20;99.90;;;;;;4932309;29;20059;-89
2022/06/25 05:49:16;;;;;;;18.45;11.05;;;23.20;99.90;;;;;;4918578;29;20048;-86
2022/06/25 05:52:01;;;;;;;18.05;10.68;;;23.20;99.90;;;;;;4917776;29;20107;-82
2022/06/25 05:54:47;;;;;;;19.08;11.95;;;23.30;99.90;;;;;;4915711;29;20139;-81
2022/06/25 05:57:33;;;;;;;17.27;10.05;;;23.30;99.90;;;;;;4929387;29;20143;-82
2022/06/25 06:00:20;;;;;;;14.98;10.15;;;23.40;99.90;;;;;;4915799;29;20075;-81
2022/06/25 06:03:06;;;;;;;11.88;8.90;;;23.30;99.90;;;;;;4916413;29;20058;-83
2022/06/25 06:05:52;;;;;;;16.17;9.90;;;23.30;99.90;;;;;;4916699;29;20119;-84
2022/06/25 06:08:37;;;;;;;18.25;9.60;;;23.40;99.90;;;;;;4917255;29;20059;-85
2022/06/25 06:11:46;;;;;;;14.45;8.82;;;23.60;99.90;;;;;;4917943;29;20070;-88
2022/06/25 06:14:32;;;;;;;14.95;9.07;;;23.70;99.90;;;;;;4916991;29;20131;-81
2022/06/25 06:17:18;;;;;;;17.77;9.30;;;23.90;99.90;;;;;;4915753;29;20066;-84
2022/06/25 06:20:05;;;;;;;12.85;8.80;;;24.00;99.90;;;;;;4916680;29;20067;-85
2022/06/25 06:22:52;;;;;;;13.60;8.52;;;24.10;99.90;;;;;;4915511;29;20055;-82
2022/06/25 06:25:37;;;;;;;13.52;9.13;;;24.10;99.90;;;;;;4916348;29;20539;-86
2022/06/25 06:28:23;;;;;;;12.38;8.93;;;24.10;99.90;;;;;;4915186;29;20128;-83
2022/06/25 06:31:09;;;;;;;15.00;9.18;;;24.10;99.90;;;;;;4917404;29;20055;-83
2022/06/25 06:33:55;;;;;;;15.05;9.48;;;24.10;99.90;;;;;;4916159;29;20503;-84
2022/06/25 06:36:41;;;;;;;16.70;9.15;;;24.20;99.90;;;;;;4929284;29;20075;-83
2022/06/25 06:39:26;;;;;;;12.50;8.30;;;24.30;99.90;;;;;;4916758;29;20143;-83
2022/06/25 06:42:12;;;;;;;17.85;9.30;;;24.30;99.90;;;;;;4929385;29;20151;-82
2022/06/25 06:44:59;;;;;;;13.80;8.80;;;24.40;99.90;;;;;;4916051;29;20067;-82
2022/06/25 06:47:44;;;;;;;13.07;8.55;;;24.30;99.90;;;;;;4916629;29;20059;-82
2022/06/25 06:50:30;;;;;;;14.82;9.80;;;24.30;99.90;;;;;;4916997;29;20051;-81
2022/06/25 06:53:16;;;;;;;16.75;9.23;;;24.30;99.90;;;;;;4916655;29;20504;-82
2022/06/25 06:56:01;;;;;;;17.20;9.00;;;24.30;99.90;;;;;;4916755;29;20104;-85
2022/06/25 06:58:48;;;;;;;17.08;9.40;;;24.20;99.90;;;;;;4916625;29;20063;-83
2022/06/25 07:01:34;;;;;;;15.32;9.98;;;24.30;99.90;;;;;;4917217;29;20107;-83
2022/06/25 07:04:20;;;;;;;16.98;9.50;;;24.40;99.90;;;;;;4915899;29;20523;-89
2022/06/25 07:07:06;;;;;;;15.38;9.45;;;24.40;99.90;;;;;;4917481;29;20161;-88
2022/06/25 07:09:52;;;;;;;15.10;9.30;;;24.50;99.90;;;;;;4916038;29;20110;-84
2022/06/25 07:12:37;;;;;;;14.27;8.85;;;24.60;99.90;;;;;;4916488;29;20059;-88
2022/06/25 07:15:23;;;;;;;16.42;9.65;;;24.60;99.90;;;;;;4916516;29;20079;-83
2022/06/25 07:18:16;;;;;;;15.00;10.32;;;24.70;99.90;;;;;;4915943;29;20067;-90
2022/06/25 07:21:02;;;;;;;13.57;9.15;;;24.50;99.90;;;;;;4916433;29;20067;-84
2022/06/25 07:23:48;;;;;;;16.63;10.75;;;24.60;99.90;;;;;;4915055;29;20058;-84
2022/06/25 07:26:35;;;;;;;15.98;9.60;;;24.60;99.90;;;;;;4916273;29;20059;-81
2022/06/25 07:29:20;;;;;;;12.95;9.35;;;24.60;99.90;;;;;;4922692;29;20176;-88
2022/06/25 07:32:07;;;;;;;19.25;9.55;;;24.70;99.90;;;;;;4935000;29;20059;-85
2022/06/25 07:34:52;;;;;;;16.95;9.07;;;24.70;99.90;;;;;;4934981;29;20058;-82
2022/06/25 07:37:38;;;;;;;15.98;9.13;;;24.90;99.90;;;;;;4934330;29;20047;-81
2022/06/25 07:40:25;;;;;;;19.20;11.45;;;24.90;99.90;;;;;;4947665;29;20099;-82
2022/06/25 07:43:11;;;;;;;16.08;9.75;;;24.90;99.90;;;;;;4934897;29;20552;-80
2022/06/25 07:45:58;;;;;;;14.40;8.25;;;25.00;99.90;;;;;;4935634;29;20054;-84
2022/06/25 07:48:44;;;;;;;17.10;10.13;;;25.10;99.90;;;;;;4935625;29;20070;-87
2022/06/25 07:54:35;;;;;;;19.13;8.82;;;25.30;99.90;;;;;;4935556;29;20384;-87
2022/06/25 07:57:21;;;;;;;16.25;9.05;;;25.30;99.90;;;;;;4931267;29;20110;-82
2022/06/25 08:00:07;;;;;;;16.88;8.82;;;25.30;99.90;;;;;;4951533;29;20042;-83
2022/06/25 08:02:53;;;;;;;35.10;23.80;;;25.40;99.90;;;;;;4939563;29;20070;-81
2022/06/25 08:05:39;;;;;;;113.55;80.25;;;25.40;99.90;;;;;;4938430;29;20134;-80
2022/06/25 08:08:26;;;;;;;32.05;25.42;;;25.50;99.90;;;;;;4934224;29;20050;-80
2022/06/25 08:11:12;;;;;;;42.30;31.27;;;25.60;99.90;;;;;;4934783;29;20063;-79
2022/06/25 08:13:59;;;;;;;54.20;33.60;;;25.70;99.90;;;;;;4932669;29;20221;-82
2022/06/25 08:16:45;;;;;;;37.65;28.95;;;25.80;99.90;;;;;;4953945;29;20062;-86
2022/06/25 08:19:30;;;;;;;53.42;36.63;;;25.80;99.90;;;;;;4939008;29;20057;-79
2022/06/25 08:22:17;;;;;;;18.90;13.70;;;25.70;99.90;;;;;;4953889;28;20157;-85
2022/06/25 08:25:05;;;;;;;17.73;11.20;;;25.70;99.90;;;;;;4944546;29;20054;-90
2022/06/25 08:27:53;;;;;;;17.02;11.23;;;25.70;99.90;;;;;;4944685;29;20054;-89
2022/06/25 08:30:42;;;;;;;15.18;10.07;;;25.90;99.90;;;;;;4958467;29;20525;-81
2022/06/25 08:33:28;;;;;;;107.68;74.68;;;25.90;99.90;;;;;;4958441;29;20090;-84
2022/06/25 08:36:14;;;;;;;124.03;86.38;;;25.80;99.90;;;;;;4942441;29;20171;-82
2022/06/25 08:39:00;;;;;;;52.00;36.00;;;25.90;99.90;;;;;;4942454;29;20124;-81
2022/06/25 08:41:46;;;;;;;20.02;14.18;;;26.00;99.90;;;;;;4957005;29;20043;-81
2022/06/25 08:44:33;;;;;;;17.98;11.88;;;26.10;99.90;;;;;;4956187;29;20119;-86
2022/06/25 08:47:19;;;;;;;16.42;10.45;;;26.20;99.90;;;;;;4956011;29;20062;-84
2022/06/25 08:50:06;;;;;;;18.80;10.65;;;26.30;99.90;;;;;;4955513;29;20066;-79
2022/06/25 08:52:54;;;;;;;18.55;9.90;;;26.40;99.90;;;;;;4952953;29;20399;-79
2022/06/25 08:55:40;;;;;;;15.30;9.25;;;26.40;99.90;;;;;;4951099;29;20148;-81
2022/06/25 08:58:26;;;;;;;60.42;42.75;;;26.30;99.90;;;;;;4954268;29;20098;-81
2022/06/25 09:01:12;;;;;;;95.65;66.53;;;26.30;99.90;;;;;;4956060;29;20120;-80
2022/06/25 09:03:58;;;;;;;22.92;15.90;;;26.40;99.90;;;;;;4954883;29;20134;-82
2022/06/25 09:06:44;;;;;;;23.98;10.45;;;26.50;99.90;;;;;;4951703;29;20087;-80
2022/06/25 09:09:30;;;;;;;15.85;8.85;;;26.60;99.90;;;;;;4954204;29;20171;-81
2022/06/25 09:12:17;;;;;;;14.32;9.20;;;26.70;99.90;;;;;;4956306;29;20053;-86
2022/06/25 09:15:17;;;;;;;15.45;8.73;;;26.70;99.90;;;;;;4956393;29;20055;-80
2022/06/25 09:18:12;;;;;;;15.35;8.00;;;26.70;99.90;;;;;;4957063;29;20062;-78
2022/06/25 09:21:07;;;;;;;16.35;8.43;;;26.80;99.90;;;;;;4955490;29;20154;-84
2022/06/25 09:24:00;;;;;;;12.32;8.38;;;27.00;99.90;;;;;;4957162;29;20050;-82
2022/06/25 09:26:51;;;;;;;17.58;8.73;;;27.10;99.90;;;;;;4951071;29;20514;-79
2022/06/25 09:29:43;;;;;;;12.43;7.68;;;27.30;99.90;;;;;;4934801;29;20155;-82
2022/06/25 09:32:41;;;;;;;39.38;27.98;;;27.40;99.90;;;;;;4937195;29;20057;-79
2022/06/25 09:35:34;;;;;;;77.50;53.10;;;27.40;99.90;;;;;;4936336;29;20519;-79
2022/06/25 09:38:21;;;;;;;52.08;41.60;;;27.50;99.60;;;;;;4936612;29;20069;-78
2022/06/25 09:41:06;;;;;;;26.85;18.75;;;27.50;99.30;;;;;;4936986;29;20067;-79
2022/06/25 09:43:53;;;;;;;16.90;9.57;;;27.50;99.50;;;;;;4936800;29;20063;-82
2022/06/25 09:46:58;;;;;;;22.75;8.88;;;27.70;98.70;;;;;;4936510;29;20134;-80
2022/06/25 09:49:44;;;;;;;20.73;9.65;;;27.80;98.70;;;;;;4935545;29;20054;-84
2022/06/25 09:52:31;;;;;;;39.55;24.35;;;27.80;98.70;;;;;;4935827;29;20131;-82
2022/06/25 09:55:18;;;;;;;25.50;17.23;;;27.80;98.80;;;;;;4948186;29;20095;-77
2022/06/25 09:58:05;;;;;;;20.38;15.05;;;28.10;97.90;;;;;;4935351;29;20137;-78
2022/06/25 10:00:51;;;;;;;18.02;11.32;;;28.10;97.50;;;;;;4949210;29;20050;-80
2022/06/25 10:03:38;;;;;;;25.55;16.35;;;28.20;98.20;;;;;;4936232;29;20171;-78
2022/06/25 10:06:34;;;;;;;41.00;28.23;;;28.40;97.20;;;;;;4944326;29;20054;-80
2022/06/25 10:09:24;;;;;;;63.67;42.00;;;28.30;96.70;;;;;;4948846;29;20522;-79
2022/06/25 10:12:10;;;;;;;24.67;17.35;;;28.50;96.30;;;;;;4953161;29;20070;-81
2022/06/25 10:14:56;;;;;;;19.35;10.60;;;28.80;95.60;;;;;;4954524;29;20521;-81
2022/06/25 10:17:47;;;;;;;21.20;13.32;;;28.70;95.40;;;;;;4955350;29;20046;-79
2022/06/25 10:20:34;;;;;;;44.05;21.63;;;28.70;94.30;;;;;;4948336;29;20130;-82
2022/06/25 10:23:21;;;;;;;37.33;26.10;;;28.90;94.10;;;;;;4951103;29;20058;-80
2022/06/25 10:26:08;;;;;;;13.20;7.32;;;28.80;94.40;;;;;;4954473;29;20403;-84
2022/06/25 10:28:54;;;;;;;20.50;7.45;;;28.90;91.70;;;;;;4946124;29;20502;-80
2022/06/25 10:31:40;;;;;;;41.80;16.90;;;29.00;91.80;;;;;;4935720;29;20059;-88
2022/06/25 10:34:26;;;;;;;18.17;7.22;;;29.00;92.10;;;;;;4934001;29;20055;-78
2022/06/25 10:37:12;;;;;;;14.10;6.82;;;29.00;90.90;;;;;;4935947;29;20187;-81
2022/06/25 10:39:57;;;;;;;14.93;6.53;;;29.20;89.80;;;;;;4934975;29;20067;-85
2022/06/25 10:43:01;;;;;;;16.73;6.38;;;29.30;88.00;;;;;;4934065;29;20526;-81
2022/06/25 10:45:47;;;;;;;18.33;6.70;;;29.60;89.20;;;;;;4931562;29;20050;-79
2022/06/25 10:48:33;;;;;;;17.38;6.00;;;29.70;88.10;;;;;;4932409;29;20058;-78
2022/06/25 10:51:29;;;;;;;12.63;6.07;;;29.60;86.90;;;;;;4934158;29;20054;-79
2022/06/25 10:54:25;;;;;;;14.40;5.13;;;29.80;84.20;;;;;;4939313;29;20062;-84
2022/06/25 10:57:11;;;;;;;10.77;5.10;;;29.90;83.40;;;;;;4942291;29;20543;-81
2022/06/25 11:00:02;;;;;;;14.73;5.60;;;29.80;82.20;;;;;;4936239;29;20051;-80
2022/06/25 11:02:53;;;;;;;15.07;6.25;;;29.70;83.50;;;;;;4948978;29;20062;-77
2022/06/25 11:05:45;;;;;;;16.05;5.47;;;30.10;83.90;;;;;;4935832;29;20156;-81
2022/06/25 11:08:36;;;;;;;19.25;5.68;;;29.80;84.50;;;;;;4935634;29;20046;-86
2022/06/25 11:11:31;;;;;;;12.57;5.28;;;30.20;85.40;;;;;;4935624;29;20432;-81
2022/06/25 11:14:22;;;;;;;17.60;5.85;;;30.70;83.60;;;;;;4934587;29;20415;-85
2022/06/25 11:17:10;;;;;;;12.98;5.38;;;30.40;82.90;;;;;;4935478;29;20548;-79
2022/06/25 11:20:08;;;;;;;13.23;6.00;;;30.40;82.80;;;;;;4934605;29;20051;-86
2022/06/25 11:22:54;;;;;;;13.15;5.78;;;30.40;81.80;;;;;;4939111;29;20089;-81
2022/06/25 11:28:54;;;;;;;17.83;9.88;;;30.20;80.10;;;;;;4955360;29;20734;-87
2022/06/25 11:31:43;;;;;;;105.45;79.55;;;30.40;80.50;;;;;;4954802;29;20198;-87
2022/06/25 11:34:30;;;;;;;17.73;10.23;;;30.60;78.80;;;;;;4954401;29;20515;-87
2022/06/25 11:37:18;;;;;;;14.05;6.13;;;30.70;78.90;;;;;;4940551;29;20054;-84
2022/06/25 11:40:15;;;;;;;12.98;5.78;;;31.00;79.20;;;;;;4955106;29;20183;-81
2022/06/25 11:43:08;;;;;;;19.58;5.95;;;31.00;77.80;;;;;;4940429;29;20118;-80
2022/06/25 11:45:57;;;;;;;18.55;5.32;;;31.10;78.00;;;;;;4935359;29;20130;-84
2022/06/25 11:48:42;;;;;;;15.43;5.15;;;31.30;77.20;;;;;;4930062;29;20138;-79
2022/06/25 11:51:28;;;;;;;15.60;6.22;;;31.40;76.20;;;;;;4932268;29;20063;-80
2022/06/25 11:54:15;;;;;;;10.68;4.55;;;31.40;75.80;;;;;;4935291;29;20407;-87
2022/06/25 11:57:01;;;;;;;16.23;5.43;;;31.30;76.40;;;;;;4935142;29;20059;-82
2022/06/25 11:59:49;;;;;;;13.57;5.05;;;31.20;76.50;;;;;;4936923;29;20124;-82
2022/06/25 12:02:35;;;;;;;14.38;5.78;;;31.20;75.00;;;;;;4937291;29;20316;-87
2022/06/25 12:05:22;;;;;;;14.68;5.32;;;31.20;76.20;;;;;;4936957;29;20054;-85
2022/06/25 12:08:09;;;;;;;15.23;4.88;;;31.00;75.50;;;;;;4949354;29;20050;-88
2022/06/25 12:10:58;;;;;;;11.32;5.13;;;31.00;75.70;;;;;;4949522;29;20176;-78
2022/06/25 12:13:43;;;;;;;13.50;4.57;;;31.20;75.20;;;;;;4935074;29;20183;-88
2022/06/25 12:16:43;;;;;;;10.77;4.38;;;31.50;74.20;;;;;;4936697;29;20071;-82
2022/06/25 12:19:46;;;;;;;12.43;4.47;;;31.90;74.30;;;;;;4936977;29;20078;-88
2022/06/25 12:22:32;;;;;;;11.18;4.45;;;31.50;74.50;;;;;;4937200;29;20187;-87
2022/06/25 12:25:34;;;;;;;18.38;5.45;;;31.50;76.00;;;;;;4949219;29;20518;-86
2022/06/25 12:28:36;;;;;;;9.52;4.90;;;31.80;73.80;;;;;;4938201;29;20058;-87
2022/06/25 12:31:23;;;;;;;14.80;5.45;;;31.70;75.30;;;;;;4937514;29;20514;-87
2022/06/25 12:34:09;;;;;;;16.00;5.35;;;31.90;73.60;;;;;;4937953;29;20061;-80
2022/06/25 12:36:56;;;;;;;13.80;4.93;;;31.90;73.20;;;;;;4938998;29;20059;-87
2022/06/25 12:39:46;;;;;;;11.35;5.10;;;31.80;73.30;;;;;;4939075;29;20062;-84
2022/06/25 12:42:33;;;;;;;11.60;4.30;;;32.00;72.40;;;;;;4938969;29;20201;-86
2022/06/25 12:45:21;;;;;;;14.82;5.38;;;32.00;72.60;;;;;;4938547;29;20054;-85
2022/06/25 12:48:31;;;;;;;10.95;4.45;;;32.10;72.60;;;;;;4937500;29;20399;-87
2022/06/25 12:51:18;;;;;;;16.55;4.63;;;32.00;71.70;;;;;;4937144;29;20058;-88
2022/06/25 12:54:06;;;;;;;13.57;5.95;;;31.80;72.10;;;;;;4937586;29;20050;-88
2022/06/25 12:56:53;;;;;;;12.45;4.95;;;31.90;72.60;;;;;;4937559;29;20454;-88
2022/06/25 12:59:44;;;;;;;12.43;5.03;;;32.40;72.50;;;;;;4937831;29;20050;-86
2022/06/25 13:02:31;;;;;;;14.45;5.93;;;32.20;72.30;;;;;;4937033;29;20131;-88
2022/06/25 13:05:20;;;;;;;11.77;5.00;;;32.00;73.10;;;;;;4936982;29;20131;-87
2022/06/25 13:08:06;;;;;;;11.88;4.45;;;32.10;72.00;;;;;;4938204;29;20103;-84
2022/06/25 13:10:52;;;;;;;11.23;4.68;;;32.30;70.00;;;;;;4937015;29;20139;-84
2022/06/25 13:13:38;;;;;;;13.60;4.22;;;32.40;67.70;;;;;;4936734;29;20070;-85
2022/06/25 13:16:28;;;;;;;10.77;5.28;;;32.30;67.30;;;;;;4936717;29;20682;-82
2022/06/25 13:19:15;;;;;;;13.23;4.68;;;32.60;68.40;;;;;;4937531;29;20070;-79
2022/06/25 13:22:03;;;;;;;13.02;4.75;;;32.10;67.10;;;;;;4937941;29;20047;-85
2022/06/25 13:24:48;;;;;;;13.10;4.47;;;31.80;68.10;;;;;;4936651;29;20139;-84
2022/06/25 13:27:38;;;;;;;11.90;5.00;;;31.60;67.50;;;;;;4936984;29;20080;-80
2022/06/25 13:30:25;;;;;;;21.25;5.82;;;31.60;68.90;;;;;;4937051;29;20338;-86
2022/06/25 13:33:31;;;;;;;14.30;5.00;;;31.40;67.90;;;;;;4937241;29;20164;-82
2022/06/25 13:36:17;;;;;;;20.55;5.30;;;31.30;67.00;;;;;;4936908;29;20051;-86
2022/06/25 13:39:05;;;;;;;13.98;4.50;;;31.30;67.60;;;;;;4937243;29;20055;-87
2022/06/25 13:41:52;;;;;;;13.98;4.63;;;31.10;67.90;;;;;;4937195;29;20621;-88
2022/06/25 13:44:37;;;;;;;17.42;5.45;;;31.40;68.10;;;;;;4936736;29;20058;-84
2022/06/25 13:47:24;;;;;;;11.80;4.78;;;31.50;68.70;;;;;;4937051;29;20222;-82
2022/06/25 13:50:10;;;;;;;16.15;4.68;;;31.40;68.20;;;;;;4936123;29;20058;-80
2022/06/25 13:52:55;;;;;;;14.65;4.60;;;31.50;71.60;;;;;;4935999;29;20518;-80
2022/06/25 13:55:41;;;;;;;16.90;5.70;;;31.30;69.20;;;;;;4935431;29;20407;-80
2022/06/25 13:58:27;;;;;;;12.57;5.43;;;31.20;69.60;;;;;;4936329;29;20075;-79
2022/06/25 14:01:13;;;;;;;16.17;5.20;;;31.20;69.20;;;;;;4936567;29;20047;-83
2022/06/25 14:03:59;;;;;;;13.20;4.90;;;31.40;69.30;;;;;;4935295;29;20055;-84
2022/06/25 14:06:46;;;;;;;13.43;4.20;;;31.50;70.70;;;;;;4934381;29;20055;-89
2022/06/25 14:09:32;;;;;;;13.38;4.10;;;31.40;69.90;;;;;;4936710;29;20059;-88
2022/06/25 14:12:20;;;;;;;13.38;4.05;;;31.40;69.80;;;;;;4936080;29;20139;-88
2022/06/25 14:15:07;;;;;;;17.42;4.28;;;31.40;70.40;;;;;;4935506;29;20199;-88
2022/06/25 14:17:52;;;;;;;17.08;4.93;;;31.60;69.70;;;;;;4935754;29;20123;-89
2022/06/25 14:20:38;;;;;;;13.20;5.30;;;31.60;68.00;;;;;;4934180;29;20221;-88
2022/06/25 14:23:24;;;;;;;17.40;4.65;;;31.50;67.80;;;;;;4936612;29;20091;-86
2022/06/25 14:26:10;;;;;;;14.40;4.72;;;31.40;69.10;;;;;;4936695;29;20059;-85
2022/06/25 14:28:56;;;;;;;12.43;4.55;;;31.50;70.00;;;;;;4933399;29;20195;-88
2022/06/25 14:31:43;;;;;;;12.70;5.43;;;31.50;69.80;;;;;;4917236;29;20047;-83
2022/06/25 14:34:29;;;;;;;10.82;4.10;;;31.20;71.10;;;;;;4916511;29;20092;-83
2022/06/25 14:43:25;;;;;;;14.30;4.47;;;30.90;69.80;;;;;;4917338;29;20047;-83